createdAt,value
2018-09-21T00:01:18.231Z,1.00
2018-09-21T00:04:00.812Z,1.10
2018-09-21T00:06:28.814Z,1.43
2018-09-21T00:08:56.507Z,0.70
2018-09-21T00:11:24.115Z,1.40
2018-09-21T00:13:51.662Z,0.80
2018-09-21T00:16:20.256Z,0.80
2018-09-21T00:18:47.876Z,0.90
2018-09-21T00:21:15.948Z,1.00
2018-09-21T00:23:43.656Z,1.70
2018-09-21T00:26:11.311Z,0.80
2018-09-21T00:28:38.955Z,1.90
2018-09-21T00:31:07.105Z,0.97
2018-09-21T00:33:34.781Z,1.10
2018-09-21T00:36:02.522Z,0.90
2018-09-21T00:38:30.175Z,1.10
2018-09-21T00:40:57.751Z,1.07
2018-09-21T00:43:25.590Z,1.33
2018-09-21T00:45:53.192Z,1.87
2018-09-21T00:48:20.958Z,1.53
2018-09-21T00:50:48.515Z,1.30
2018-09-21T00:53:16.333Z,1.07
2018-09-21T00:55:43.956Z,0.93
2018-09-21T00:58:11.543Z,1.40
2018-09-21T01:00:39.189Z,1.27
2018-09-21T01:03:06.901Z,0.80
2018-09-21T01:05:34.557Z,1.37
2018-09-21T01:08:02.048Z,0.97
2018-09-21T01:10:30.808Z,1.10
2018-09-21T01:12:58.453Z,1.50
2018-09-21T01:15:26.023Z,1.10
2018-09-21T01:17:53.609Z,1.33
2018-09-21T01:20:21.699Z,1.00
2018-09-21T01:22:49.310Z,1.10
2018-09-21T01:25:16.955Z,1.07
2018-09-21T01:27:44.575Z,1.40
2018-09-21T01:30:12.234Z,1.30
2018-09-21T01:32:39.969Z,1.33
2018-09-21T01:35:07.441Z,1.10
2018-09-21T01:37:35.012Z,1.30
2018-09-21T01:40:02.783Z,1.07
2018-09-21T01:42:30.333Z,1.10
2018-09-21T01:44:58.498Z,1.27
2018-09-21T01:47:26.127Z,1.20
2018-09-21T01:49:54.099Z,0.70
2018-09-21T01:52:22.168Z,1.00
2018-09-21T01:54:49.969Z,1.57
2018-09-21T01:57:17.765Z,0.70
2018-09-21T01:59:45.692Z,1.83
2018-09-21T02:02:13.467Z,1.37
2018-09-21T02:04:41.288Z,1.77
2018-09-21T02:07:11.154Z,1.10
2018-09-21T02:09:39.163Z,1.17
2018-09-21T02:12:06.947Z,1.10
2018-09-21T02:14:35.302Z,0.80
2018-09-21T02:17:03.509Z,1.00
2018-09-21T02:19:31.793Z,1.17
2018-09-21T02:21:59.508Z,1.20
2018-09-21T02:24:27.233Z,1.23
2018-09-21T02:26:55.129Z,0.87
2018-09-21T02:29:22.927Z,1.00
2018-09-21T02:31:50.951Z,1.07
2018-09-21T02:34:19.142Z,0.80
2018-09-21T02:36:46.972Z,1.00
2018-09-21T02:39:14.807Z,1.50
2018-09-21T02:41:42.494Z,1.23
2018-09-21T02:44:10.494Z,1.30
2018-09-21T02:46:38.469Z,0.90
2018-09-21T02:49:06.201Z,1.70
2018-09-21T02:51:34.049Z,1.23
2018-09-21T02:54:02.249Z,1.13
2018-09-21T02:56:30.107Z,1.73
2018-09-21T02:58:57.772Z,1.20
2018-09-21T03:01:25.611Z,1.43
2018-09-21T03:03:53.380Z,0.80
2018-09-21T03:06:21.116Z,0.70
2018-09-21T03:08:48.785Z,0.70
2018-09-21T03:11:16.744Z,0.87
2018-09-21T03:13:44.315Z,1.03
2018-09-21T03:16:18.584Z,1.10
2018-09-21T03:18:46.541Z,0.90
2018-09-21T03:21:14.206Z,2.20
2018-09-21T03:23:41.768Z,1.40
2018-09-21T03:26:09.283Z,1.10
2018-09-21T03:28:36.851Z,1.00
2018-09-21T03:31:04.396Z,1.53
2018-09-21T03:33:32.165Z,1.27
2018-09-21T03:35:59.702Z,1.37
2018-09-21T03:38:27.179Z,1.33
2018-09-21T03:40:54.912Z,1.67
2018-09-21T03:43:22.496Z,0.80
2018-09-21T03:45:50.057Z,1.10
2018-09-21T03:48:17.654Z,0.80
2018-09-21T03:50:45.096Z,1.03
2018-09-21T03:53:12.571Z,1.73
2018-09-21T03:55:40.375Z,2.33
2018-09-21T03:58:07.829Z,1.40
2018-09-21T04:00:35.388Z,2.43
2018-09-21T04:03:02.920Z,1.50
2018-09-21T04:05:30.436Z,1.33
2018-09-21T04:07:57.919Z,1.70
2018-09-21T04:10:25.393Z,1.53
2018-09-21T04:12:52.841Z,0.93
2018-09-21T04:15:20.570Z,1.00
2018-09-21T04:17:48.111Z,1.30
2018-09-21T04:20:15.629Z,1.20
2018-09-21T04:22:47.887Z,1.47
2018-09-21T04:25:15.498Z,1.37
2018-09-21T04:27:43.003Z,1.00
2018-09-21T04:30:10.444Z,1.13
2018-09-21T04:32:37.923Z,1.03
2018-09-21T04:35:05.448Z,1.60
2018-09-21T04:37:32.923Z,0.90
2018-09-21T04:40:00.462Z,1.00
2018-09-21T04:42:27.938Z,1.60
2018-09-21T04:44:55.390Z,1.40
2018-09-21T04:47:22.957Z,1.17
2018-09-21T04:49:50.423Z,1.10
2018-09-21T04:52:17.876Z,1.03
2018-09-21T04:54:45.393Z,1.47
2018-09-21T04:57:13.479Z,1.67
2018-09-21T04:59:41.008Z,1.00
2018-09-21T05:02:08.562Z,1.50
2018-09-21T05:04:37.767Z,0.83
2018-09-21T05:07:05.473Z,1.17
2018-09-21T05:09:33.039Z,1.63
2018-09-21T05:12:00.553Z,0.90
2018-09-21T05:14:28.194Z,1.63
2018-09-21T05:16:55.759Z,2.43
2018-09-21T05:19:23.275Z,1.43
2018-09-21T05:21:50.819Z,1.10
2018-09-21T05:24:18.325Z,1.03
2018-09-21T05:26:45.948Z,1.33
2018-09-21T05:29:13.495Z,1.00
2018-09-21T05:31:41.420Z,1.40
2018-09-21T05:34:08.891Z,1.23
2018-09-21T05:36:36.399Z,1.13
2018-09-21T05:39:07.127Z,1.17
2018-09-21T05:41:35.208Z,1.00
2018-09-21T05:44:02.731Z,1.20
2018-09-21T05:46:30.390Z,1.43
2018-09-21T05:48:58.607Z,2.20
2018-09-21T05:51:26.107Z,1.47
2018-09-21T05:53:53.627Z,1.03
2018-09-21T05:56:21.783Z,1.23
2018-09-21T05:58:49.311Z,1.50
2018-09-21T06:01:16.823Z,1.97
2018-09-21T06:03:44.540Z,1.87
2018-09-21T06:06:12.228Z,2.50
2018-09-21T06:08:39.759Z,1.50
2018-09-21T06:11:07.315Z,1.60
2018-09-21T06:13:35.560Z,1.00
2018-09-21T06:16:02.992Z,1.27
2018-09-21T06:18:30.547Z,1.47
2018-09-21T06:20:58.147Z,1.20
2018-09-21T06:23:26.039Z,0.87
2018-09-21T06:25:54.080Z,1.30
2018-09-21T06:28:21.603Z,1.40
2018-09-21T06:30:51.005Z,2.40
2018-09-21T06:33:21.892Z,1.70
2018-09-21T06:35:51.591Z,1.47
2018-09-21T06:38:22.149Z,1.60
2018-09-21T06:40:56.248Z,1.70
2018-09-21T06:43:27.688Z,1.77
2018-09-21T06:46:01.247Z,1.40
2018-09-21T06:48:30.391Z,1.20
2018-09-21T06:51:01.636Z,1.43
2018-09-21T06:53:33.849Z,1.07
2018-09-21T06:56:03.339Z,1.30
2018-09-21T06:58:32.707Z,1.60
2018-09-21T07:01:02.910Z,0.90
2018-09-21T07:03:38.962Z,1.50
2018-09-21T07:06:07.001Z,1.87
2018-09-21T07:08:35.913Z,1.10
2018-09-21T07:11:08.446Z,1.30
2018-09-21T07:13:36.374Z,1.30
2018-09-21T07:16:06.441Z,1.30
2018-09-21T07:18:35.035Z,1.30
2018-09-21T07:21:08.464Z,1.60
2018-09-21T07:23:41.149Z,1.20
2018-09-21T07:26:09.141Z,1.13
2018-09-21T07:28:41.612Z,1.30
2018-09-21T07:31:13.022Z,1.10
2018-09-21T07:33:43.965Z,1.70
2018-09-21T07:36:13.539Z,1.33
2018-09-21T07:38:44.023Z,1.13
2018-09-21T07:41:13.149Z,1.80
2018-09-21T07:43:41.784Z,1.67
2018-09-21T07:46:11.134Z,2.30
2018-09-21T07:48:44.474Z,1.20
2018-09-21T07:51:16.062Z,1.97
2018-09-21T07:53:45.659Z,0.90
2018-09-21T07:56:14.265Z,1.77
2018-09-21T07:58:45.300Z,1.57
2018-09-21T08:01:14.845Z,1.03
2018-09-21T08:03:44.484Z,1.50
2018-09-21T08:06:13.771Z,1.80
2018-09-21T08:08:42.302Z,1.70
2018-09-21T08:11:11.828Z,1.27
2018-09-21T08:13:41.452Z,1.30
2018-09-21T08:16:10.625Z,2.00
2018-09-21T08:18:40.713Z,1.50
2018-09-21T08:21:08.900Z,1.23
2018-09-21T08:23:38.367Z,1.50
2018-09-21T08:26:06.794Z,1.90
2018-09-21T08:28:37.361Z,1.07
2018-09-21T08:31:05.864Z,1.00
2018-09-21T08:33:40.063Z,1.13
2018-09-21T08:36:15.057Z,0.97
2018-09-21T08:38:44.136Z,1.27
2018-09-21T08:41:13.225Z,1.00
2018-09-21T08:43:43.740Z,1.13
2018-09-21T08:46:16.934Z,1.33
2018-09-21T08:48:47.668Z,1.00
2018-09-21T08:51:24.553Z,1.10
2018-09-21T08:53:58.332Z,1.87
2018-09-21T08:56:33.754Z,1.13
2018-09-21T08:59:10.398Z,1.20
2018-09-21T09:01:39.818Z,1.43
2018-09-21T09:04:09.541Z,1.87
2018-09-21T09:06:38.205Z,0.90
2018-09-21T09:09:09.700Z,1.30
2018-09-21T09:11:38.642Z,0.73
2018-09-21T09:14:06.960Z,1.50
2018-09-21T09:16:35.336Z,1.57
2018-09-21T09:19:05.271Z,2.07
2018-09-21T09:21:33.452Z,1.17
2018-09-21T09:24:02.061Z,1.03
2018-09-21T09:26:32.630Z,0.97
2018-09-21T09:29:04.420Z,1.20
2018-09-21T09:31:40.343Z,1.13
2018-09-21T09:34:11.675Z,1.00
2018-09-21T09:36:45.701Z,1.13
2018-09-21T09:39:14.559Z,0.80
2018-09-21T09:41:44.154Z,1.83
2018-09-21T09:44:14.076Z,1.20
2018-09-21T09:46:43.127Z,0.90
2018-09-21T09:49:23.167Z,0.70
2018-09-21T09:52:19.675Z,1.10
2018-09-21T09:54:49.336Z,0.70
2018-09-21T09:57:23.276Z,0.90
2018-09-21T10:00:00.916Z,0.90
2018-09-21T10:02:34.918Z,0.70
2018-09-21T10:05:14.971Z,1.47
2018-09-21T10:07:47.947Z,0.90
2018-09-21T10:10:25.083Z,0.90
2018-09-21T10:12:55.914Z,1.07
2018-09-21T10:15:26.242Z,0.90
2018-09-21T10:18:19.355Z,0.50
2018-09-21T10:20:52.251Z,0.80
2018-09-21T10:23:27.016Z,0.80
2018-09-21T10:26:04.216Z,0.70
2018-09-21T10:28:34.359Z,1.43
2018-09-21T10:31:05.280Z,1.03
2018-09-21T10:33:40.879Z,1.10
2018-09-21T10:36:14.501Z,0.80
2018-09-21T10:38:49.126Z,0.90
2018-09-21T10:41:20.045Z,1.47
2018-09-21T10:44:02.239Z,0.70
2018-09-21T10:46:39.077Z,0.93
2018-09-21T10:51:54.579Z,0.80
2018-09-21T10:54:24.097Z,0.70
2018-09-21T11:00:34.825Z,0.80
2018-09-21T11:03:13.844Z,0.80
2018-09-21T11:05:42.985Z,0.77
2018-09-21T11:08:19.434Z,0.70
2018-09-21T11:10:57.892Z,0.80
2018-09-21T11:13:28.554Z,0.80
2018-09-21T11:15:59.424Z,0.77
2018-09-21T11:18:34.257Z,0.80
2018-09-21T11:21:04.180Z,0.80
2018-09-21T11:23:34.208Z,0.50
2018-09-21T11:26:04.716Z,0.67
2018-09-21T11:28:36.294Z,0.60
2018-09-21T11:31:14.607Z,0.77
2018-09-21T11:33:43.480Z,0.70
2018-09-21T11:36:11.720Z,0.93
2018-09-21T11:38:42.190Z,0.93
2018-09-21T11:41:22.851Z,1.37
2018-09-21T11:43:58.727Z,0.80
2018-09-21T11:49:11.819Z,0.60
2018-09-21T11:54:34.212Z,0.60
2018-09-21T11:57:14.098Z,0.40
2018-09-21T12:07:57.164Z,0.50
2018-09-21T12:10:28.752Z,0.60
2018-09-21T12:15:44.177Z,0.80
2018-09-21T12:18:15.935Z,0.40
2018-09-21T12:20:45.986Z,0.93
2018-09-21T12:23:16.851Z,0.60
2018-09-21T12:29:41.440Z,0.90
2018-09-21T12:32:15.023Z,0.50
2018-09-21T12:34:44.515Z,0.60
2018-09-21T12:37:21.132Z,0.60
2018-09-21T12:39:50.869Z,0.87
2018-09-21T12:42:21.239Z,0.70
2018-09-21T12:44:49.317Z,0.70
2018-09-21T12:47:19.676Z,0.50
2018-09-21T12:49:50.633Z,0.70
2018-09-21T12:52:19.366Z,0.80
2018-09-21T12:54:57.183Z,0.80
2018-09-21T12:57:27.135Z,0.80
2018-09-21T13:00:02.183Z,0.50
2018-09-21T13:02:36.061Z,0.50
2018-09-21T13:05:04.468Z,0.67
2018-09-21T13:07:32.799Z,0.77
2018-09-21T13:10:08.416Z,0.70
2018-09-21T13:12:43.650Z,0.70
2018-09-21T13:20:43.246Z,0.50
2018-09-21T13:23:13.897Z,0.50
2018-09-21T13:28:32.848Z,0.70
2018-09-21T13:31:04.270Z,0.60
2018-09-21T13:39:44.361Z,0.70
2018-09-21T13:42:20.725Z,0.80
2018-09-21T13:44:53.724Z,0.73
2018-09-21T13:47:27.525Z,0.80
2018-09-21T13:49:56.558Z,0.70
2018-09-21T13:52:29.023Z,0.63
2018-09-21T13:54:58.138Z,0.80
2018-09-21T13:57:26.836Z,0.67
2018-09-21T13:59:56.182Z,0.60
2018-09-21T14:02:29.249Z,0.63
2018-09-21T14:04:59.549Z,0.80
2018-09-21T14:07:30.646Z,0.80
2018-09-21T14:10:33.814Z,1.00
2018-09-21T14:13:03.538Z,0.70
2018-09-21T14:19:43.239Z,0.63
2018-09-21T14:25:01.395Z,0.50
2018-09-21T14:27:40.693Z,0.80
2018-09-21T14:30:11.664Z,0.80
2018-09-21T14:32:42.525Z,0.63
2018-09-21T14:35:18.178Z,0.60
2018-09-21T14:37:48.524Z,0.60
2018-09-21T14:40:21.395Z,1.03
2018-09-21T14:42:50.178Z,0.57
2018-09-21T14:45:18.657Z,0.50
2018-09-21T14:47:48.457Z,0.53
2018-09-21T14:50:22.869Z,0.70
2018-09-21T14:52:58.252Z,0.50
2018-09-21T14:55:26.936Z,0.50
2018-09-21T14:57:55.936Z,0.60
2018-09-21T15:00:27.284Z,0.50
2018-09-21T15:02:57.694Z,0.60
2018-09-21T15:05:29.163Z,0.53
2018-09-21T15:07:57.319Z,0.60
2018-09-21T15:10:28.004Z,0.60
2018-09-21T15:12:58.538Z,0.80
2018-09-21T15:15:26.825Z,0.60
2018-09-21T15:17:56.551Z,0.50
2018-09-21T15:20:25.876Z,0.87
2018-09-21T15:22:55.804Z,0.63
2018-09-21T15:25:25.223Z,0.60
2018-09-21T15:27:59.462Z,0.80
2018-09-21T15:30:28.241Z,0.60
2018-09-21T15:33:02.225Z,0.70
2018-09-21T15:35:30.637Z,0.73
2018-09-21T15:38:04.334Z,0.60
2018-09-21T15:40:52.800Z,0.50
2018-09-21T15:46:18.965Z,0.60
2018-09-21T15:48:49.549Z,0.80
2018-09-21T15:51:21.124Z,0.70
2018-09-21T15:53:50.692Z,0.60
2018-09-21T15:56:19.485Z,0.60
2018-09-21T15:58:47.609Z,0.60
2018-09-21T16:01:22.499Z,0.60
2018-09-21T16:03:52.570Z,0.70
2018-09-21T16:06:25.258Z,0.60
2018-09-21T16:08:54.034Z,0.60
2018-09-21T16:11:25.202Z,0.60
2018-09-21T16:13:55.412Z,0.60
2018-09-21T16:16:24.261Z,0.70
2018-09-21T16:18:53.277Z,0.67
2018-09-21T16:21:22.631Z,0.70
2018-09-21T16:23:50.336Z,0.60
2018-09-21T16:26:18.961Z,0.70
2018-09-21T16:28:46.811Z,0.60
2018-09-21T16:31:14.751Z,0.60
2018-09-21T16:33:42.564Z,0.70
2018-09-21T16:36:11.510Z,0.70
2018-09-21T16:38:39.807Z,0.70
2018-09-21T16:41:08.143Z,0.60
2018-09-21T16:43:36.667Z,0.60
2018-09-21T16:46:05.551Z,0.60
2018-09-21T16:48:35.016Z,0.73
2018-09-21T16:51:07.054Z,0.60
2018-09-21T16:53:39.342Z,0.80
2018-09-21T16:56:10.067Z,0.70
2018-09-21T16:58:38.046Z,0.63
2018-09-21T17:01:06.818Z,0.83
2018-09-21T17:03:39.606Z,0.60
2018-09-21T17:06:07.639Z,0.80
2018-09-21T17:08:35.324Z,0.57
2018-09-21T17:11:03.085Z,0.60
2018-09-21T17:13:30.730Z,0.60
2018-09-21T17:15:59.820Z,0.50
2018-09-21T17:18:28.015Z,0.63
2018-09-21T17:20:56.130Z,0.63
2018-09-21T17:23:24.652Z,0.70
2018-09-21T17:25:53.131Z,0.50
2018-09-21T17:28:22.337Z,0.50
2018-09-21T17:30:51.019Z,0.70
2018-09-21T17:33:26.604Z,1.57
2018-09-21T17:35:55.412Z,0.50
2018-09-21T17:38:28.744Z,0.70
2018-09-21T17:40:56.832Z,0.70
2018-09-21T17:43:24.941Z,0.60
2018-09-21T17:45:52.730Z,0.70
2018-09-21T17:48:21.692Z,0.87
2018-09-21T17:50:54.516Z,0.70
2018-09-21T17:53:22.632Z,0.60
2018-09-21T17:56:00.202Z,0.70
2018-09-21T17:58:28.485Z,0.60
2018-09-21T18:03:57.613Z,0.70
2018-09-21T18:06:27.127Z,0.60
2018-09-21T18:08:59.647Z,0.63
2018-09-21T18:11:32.430Z,0.63
2018-09-21T18:14:01.339Z,0.60
2018-09-21T18:16:29.012Z,0.50
2018-09-21T18:19:07.460Z,0.70
2018-09-21T18:21:36.264Z,0.70
2018-09-21T18:24:05.072Z,0.60
2018-09-21T18:26:33.779Z,0.70
2018-09-21T18:29:02.482Z,0.43
2018-09-21T18:31:35.356Z,0.70
2018-09-21T18:34:03.592Z,0.60
2018-09-21T18:36:32.028Z,0.70
2018-09-21T18:39:01.252Z,0.70
2018-09-21T18:41:31.903Z,0.60
2018-09-21T18:44:02.903Z,0.80
2018-09-21T18:46:30.727Z,0.60
2018-09-21T18:49:03.025Z,0.70
2018-09-21T18:51:32.705Z,0.70
2018-09-21T18:54:06.523Z,0.60
2018-09-21T18:56:40.759Z,0.50
2018-09-21T18:59:12.292Z,0.70
2018-09-21T19:01:41.160Z,0.70
2018-09-21T19:04:09.400Z,1.20
2018-09-21T19:06:38.389Z,0.70
2018-09-21T19:09:09.920Z,0.70
2018-09-21T19:11:38.000Z,0.53
2018-09-21T19:14:07.937Z,0.60
2018-09-21T19:16:41.105Z,0.70
2018-09-21T19:19:10.182Z,0.60
2018-09-21T19:21:45.056Z,0.90
2018-09-21T19:24:15.263Z,0.70
2018-09-21T19:26:43.879Z,0.70
2018-09-21T19:29:14.329Z,0.70
2018-09-21T19:31:47.468Z,0.60
2018-09-21T19:34:17.133Z,0.70
2018-09-21T19:36:45.629Z,0.60
2018-09-21T19:39:15.991Z,0.40
2018-09-21T19:41:46.124Z,0.80
2018-09-21T19:44:22.623Z,0.67
2018-09-21T19:46:51.220Z,0.70
2018-09-21T19:49:23.856Z,0.70
2018-09-21T19:51:55.856Z,0.67
2018-09-21T19:54:25.279Z,0.60
2018-09-21T19:56:58.333Z,0.70
2018-09-21T19:59:26.203Z,0.70
2018-09-21T20:01:53.782Z,0.70
2018-09-21T20:04:21.641Z,0.60
2018-09-21T20:06:49.633Z,0.70
2018-09-21T20:09:17.433Z,0.60
2018-09-21T20:11:45.729Z,0.63
2018-09-21T20:14:13.330Z,0.60
2018-09-21T20:16:42.549Z,0.70
2018-09-21T20:19:10.345Z,0.80
2018-09-21T20:21:42.475Z,0.80
2018-09-21T20:24:10.131Z,0.70
2018-09-21T20:26:37.774Z,0.60
2018-09-21T20:29:05.743Z,0.70
2018-09-21T20:31:39.039Z,0.70
2018-09-21T20:34:06.742Z,0.80
2018-09-21T20:36:34.387Z,0.60
2018-09-21T20:39:02.220Z,0.70
2018-09-21T20:41:29.889Z,0.70
2018-09-21T20:43:57.464Z,0.60
2018-09-21T20:46:25.161Z,1.03
2018-09-21T20:48:53.192Z,0.67
2018-09-21T20:51:20.799Z,0.60
2018-09-21T20:53:48.719Z,0.67
2018-09-21T20:56:16.245Z,0.60
2018-09-21T20:58:43.828Z,0.60
2018-09-21T21:01:11.303Z,1.00
2018-09-21T21:03:38.893Z,1.10
2018-09-21T21:06:06.507Z,0.60
2018-09-21T21:08:34.147Z,0.63
2018-09-21T21:11:01.710Z,0.97
2018-09-21T21:13:29.352Z,0.60
2018-09-21T21:15:56.900Z,0.67
2018-09-21T21:18:24.536Z,0.60
2018-09-21T21:20:52.012Z,0.80
2018-09-21T21:23:19.545Z,0.60
2018-09-21T21:25:47.080Z,0.80
2018-09-21T21:28:14.706Z,0.50
2018-09-21T21:30:42.254Z,0.70
2018-09-21T21:33:09.856Z,0.60
2018-09-21T21:35:37.465Z,0.70
2018-09-21T21:38:05.182Z,0.60
2018-09-21T21:40:32.792Z,0.80
2018-09-21T21:43:00.355Z,0.60
2018-09-21T21:45:27.860Z,0.77
2018-09-21T21:47:55.323Z,0.70
2018-09-21T21:50:22.854Z,0.80
2018-09-21T21:52:50.491Z,0.53
2018-09-21T21:55:17.981Z,0.67
2018-09-21T21:57:45.538Z,0.60
2018-09-21T22:00:13.109Z,0.60
2018-09-21T22:02:40.670Z,0.60
2018-09-21T22:05:08.277Z,1.00
2018-09-21T22:07:36.972Z,0.53
2018-09-21T22:10:05.772Z,0.60
2018-09-21T22:12:38.732Z,0.80
2018-09-21T22:15:21.156Z,0.60
2018-09-21T22:17:49.475Z,0.67
2018-09-21T22:20:17.228Z,0.50
2018-09-21T22:22:44.780Z,0.60
2018-09-21T22:25:12.400Z,0.50
2018-09-21T22:27:40.526Z,0.70
2018-09-21T22:30:08.567Z,1.10
2018-09-21T22:32:36.197Z,0.70
2018-09-21T22:35:03.890Z,0.70
2018-09-21T22:37:31.470Z,0.70
2018-09-21T22:39:58.990Z,0.70
2018-09-21T22:42:26.597Z,0.50
2018-09-21T22:44:54.201Z,0.60
2018-09-21T22:47:21.671Z,0.70
2018-09-21T22:49:49.752Z,0.70
2018-09-21T22:52:17.316Z,0.63
2018-09-21T22:54:44.883Z,0.40
2018-09-21T22:57:12.635Z,0.70
2018-09-21T22:59:40.317Z,0.50
2018-09-21T23:02:07.895Z,0.70
2018-09-21T23:04:35.398Z,0.70
2018-09-21T23:07:02.947Z,0.50
2018-09-21T23:09:30.496Z,0.67
2018-09-21T23:11:58.515Z,0.60
2018-09-21T23:14:26.209Z,0.50
2018-09-21T23:16:53.905Z,0.80
2018-09-21T23:19:21.524Z,0.70
2018-09-21T23:21:49.262Z,0.60
2018-09-21T23:24:16.864Z,0.50
2018-09-21T23:26:44.391Z,0.60
2018-09-21T23:29:11.853Z,0.83
2018-09-21T23:31:39.444Z,0.60
2018-09-21T23:34:07.028Z,0.60
2018-09-21T23:36:34.711Z,0.67
2018-09-21T23:39:04.183Z,0.47
2018-09-21T23:41:31.695Z,0.53
2018-09-21T23:43:59.396Z,0.70
2018-09-21T23:46:26.960Z,0.70
2018-09-21T23:48:54.518Z,0.60
2018-09-21T23:51:22.051Z,0.70
2018-09-21T23:53:49.664Z,0.50
2018-09-21T23:56:17.271Z,0.70
2018-09-21T23:58:44.882Z,0.60
